Time;durP1;ratioP1;P1;durP2;ratioP2;P2;SDS_P1;SDS_P2;PMS_P1;PMS_P2;Temp;Humidity;BMP_temperature;BMP_pressure;BME280_temperature;BME280_humidity;BME280_pressure;Samples;Min_cycle;Max_cycle;Signal;HPM_P1;HPM_P2
2022/04/26 03:37:29;;;;;;;0.10;0.10;;;;;;;12.13;58.77;101811.63;5069588;28;20190;-75
2022/04/26 03:39:56;;;;;;;0.00;0.00;;;;;;;12.14;58.38;101816.06;5049975;28;20427;-75
2022/04/26 03:42:22;;;;;;;0.10;0.10;;;;;;;12.12;58.95;101820.53;5065832;28;20029;-75
2022/04/26 03:44:48;;;;;;;0.00;0.00;;;;;;;12.10;59.13;101816.09;5064944;28;20498;-75
2022/04/26 03:47:14;;;;;;;0.30;0.30;;;;;;;12.07;58.75;101824.13;5058963;28;20478;-75
2022/04/26 03:49:40;;;;;;;0.10;0.10;;;;;;;12.11;58.79;101812.53;5063240;28;20069;-75
2022/04/26 03:52:07;;;;;;;0.00;0.00;;;;;;;12.11;59.04;101820.53;5062220;28;20024;-75
2022/04/26 03:54:34;;;;;;;0.00;0.00;;;;;;;12.12;59.16;101830.25;5066442;28;20025;-76
2022/04/26 03:57:00;;;;;;;0.25;0.25;;;;;;;12.09;58.69;101827.66;5068778;28;20108;-75
2022/04/26 03:59:26;;;;;;;0.10;0.10;;;;;;;12.09;59.26;101825.00;5067958;28;20030;-76
2022/04/26 04:01:53;;;;;;;0.00;0.00;;;;;;;12.14;58.85;101817.84;5059956;28;20043;-75
2022/04/26 04:04:19;;;;;;;0.10;0.10;;;;;;;12.08;59.54;101825.88;5067440;28;20036;-75
2022/04/26 04:06:45;;;;;;;0.00;0.00;;;;;;;12.12;58.83;101822.28;5061766;28;20115;-75
2022/04/26 04:09:11;;;;;;;0.00;0.00;;;;;;;12.12;59.21;101816.97;5062871;28;20036;-75
2022/04/26 04:11:37;;;;;;;0.10;0.10;;;;;;;12.08;59.93;101825.88;5067206;28;20033;-75
2022/04/26 04:14:03;;;;;;;0.05;0.05;;;;;;;12.14;59.28;101824.03;5066324;28;20449;-75
2022/04/26 04:16:29;;;;;;;0.15;0.15;;;;;;;12.14;59.02;101828.47;5064661;28;20104;-75
2022/04/26 04:19:29;;;;;;;0.25;0.25;;;;;;;12.15;59.03;101827.59;5063530;28;20075;-75
2022/04/26 04:21:42;;;;;;;0.10;0.10;;;;;;;12.10;59.33;101832.94;5064829;28;20097;-76
2022/04/26 04:24:08;;;;;;;0.08;0.08;;;;;;;12.08;59.20;101825.88;5064603;28;20029;-75
2022/04/26 04:26:34;;;;;;;0.75;0.75;;;;;;;12.07;59.73;101830.28;5055567;28;20102;-75
2022/04/26 04:29:01;;;;;;;0.15;0.15;;;;;;;12.00;59.21;101823.31;5068568;28;20111;-76
2022/04/26 04:31:27;;;;;;;0.10;0.10;;;;;;;12.08;59.52;101836.50;5064053;28;20028;-75
2022/04/26 04:33:53;;;;;;;1.13;1.13;;;;;;;12.03;59.34;101838.34;5059514;28;20040;-75
2022/04/26 04:36:19;;;;;;;0.10;0.10;;;;;;;12.02;58.81;101837.44;5055088;28;20028;-75
2022/04/26 04:38:45;;;;;;;0.10;0.10;;;;;;;12.00;59.04;101836.59;5061088;28;20040;-75
2022/04/26 04:41:11;;;;;;;0.80;0.45;;;;;;;11.97;59.30;101840.16;5060553;28;20077;-75
2022/04/26 04:43:37;;;;;;;0.00;0.00;;;;;;;12.01;59.49;101843.63;5058771;28;20028;-75
2022/04/26 04:46:04;;;;;;;0.05;0.05;;;;;;;12.02;59.30;101853.38;5066203;28;20040;-75
2022/04/26 04:48:30;;;;;;;0.10;0.10;;;;;;;12.04;59.02;101866.66;5052674;28;20142;-76
2022/04/26 04:50:56;;;;;;;0.55;0.52;;;;;;;11.98;59.28;101857.84;5088280;22;20048;-76
2022/04/26 04:53:22;;;;;;;0.08;0.08;;;;;;;12.00;59.36;101872.88;5077262;28;20039;-76
2022/04/26 04:55:48;;;;;;;0.00;0.00;;;;;;;11.95;58.78;101872.88;5070610;28;20028;-76
2022/04/26 04:58:14;;;;;;;0.10;0.10;;;;;;;11.98;58.84;101876.41;5080272;28;20029;-76
2022/04/26 05:00:40;;;;;;;0.00;0.00;;;;;;;12.00;59.69;101891.47;5069029;28;20066;-76
2022/04/26 05:03:07;;;;;;;1.67;1.55;;;;;;;12.02;59.32;101879.06;5067826;28;20499;-76
2022/04/26 05:05:33;;;;;;;0.22;0.22;;;;;;;12.00;59.09;101887.06;5075718;28;20024;-76
2022/04/26 05:07:59;;;;;;;0.20;0.20;;;;;;;11.97;58.68;101893.28;5080698;28;20024;-75
2022/04/26 05:10:26;;;;;;;0.00;0.00;;;;;;;11.96;58.79;101894.16;5072299;28;20042;-75
2022/04/26 05:12:52;;;;;;;0.10;0.10;;;;;;;11.98;58.92;101902.97;5072687;28;20037;-76
2022/04/26 05:15:18;;;;;;;0.20;0.13;;;;;;;12.00;59.08;101907.41;5072843;28;20081;-76
2022/04/26 05:17:44;;;;;;;0.25;0.25;;;;;;;12.01;59.42;101909.16;5073818;28;20067;-76
2022/04/26 05:20:10;;;;;;;0.10;0.10;;;;;;;12.01;58.82;101911.81;5072104;28;20036;-76
2022/04/26 05:25:23;;;;;;;0.22;0.22;;;;;;;12.01;59.24;101904.72;5073861;28;20524;-75
2022/04/26 05:27:49;;;;;;;0.00;0.00;;;;;;;11.98;58.82;101910.94;5069276;28;20037;-77
2022/04/26 05:30:15;;;;;;;0.08;0.08;;;;;;;12.03;59.14;101910.06;5071488;28;20070;-76
2022/04/26 05:32:41;;;;;;;0.85;0.85;;;;;;;12.02;58.94;101914.47;5062925;28;20024;-76
2022/04/26 05:35:08;;;;;;;0.00;0.00;;;;;;;12.03;59.22;101928.66;5066821;28;20044;-76
2022/04/26 05:37:34;;;;;;;0.25;0.25;;;;;;;12.06;59.18;101928.59;5067490;28;20032;-76
2022/04/26 05:40:02;;;;;;;0.00;0.00;;;;;;;12.05;59.47;101924.19;5072588;28;20039;-76
2022/04/26 05:42:29;;;;;;;0.40;0.40;;;;;;;12.07;59.03;101930.38;5059764;28;20060;-76
2022/04/26 05:44:55;;;;;;;0.00;0.00;;;;;;;12.05;59.01;101926.84;5067731;28;20025;-76
2022/04/26 05:47:21;;;;;;;0.25;0.25;;;;;;;12.07;58.75;101935.69;5070730;28;20028;-76
2022/04/26 05:49:48;;;;;;;0.00;0.00;;;;;;;12.09;59.10;101928.59;5072764;28;20079;-76
2022/04/26 05:52:14;;;;;;;0.10;0.10;;;;;;;12.12;59.02;101934.75;5067294;28;20039;-77
2022/04/26 05:54:40;;;;;;;0.85;0.85;;;;;;;12.11;59.33;101926.78;5069132;28;20048;-76
2022/04/26 05:57:07;;;;;;;0.10;0.10;;;;;;;12.08;59.28;101933.00;5060944;28;20462;-76
2022/04/26 05:59:34;;;;;;;0.10;0.10;;;;;;;12.04;59.32;101931.28;5071769;28;20103;-76
2022/04/26 06:02:00;;;;;;;0.00;0.00;;;;;;;12.12;58.63;101934.75;5066715;28;20035;-76
2022/04/26 06:04:27;;;;;;;0.08;0.08;;;;;;;12.08;59.14;101938.31;5068810;28;20028;-77
2022/04/26 06:06:53;;;;;;;0.00;0.00;;;;;;;12.00;58.63;101939.28;5074901;28;20126;-76
2022/04/26 06:09:20;;;;;;;0.10;0.10;;;;;;;11.96;58.51;101938.41;5073256;28;20058;-77
2022/04/26 06:11:46;;;;;;;0.10;0.10;;;;;;;11.93;59.09;101943.75;5070919;28;20116;-77
2022/04/26 06:14:12;;;;;;;0.10;0.10;;;;;;;11.92;58.89;101942.84;5062947;28;20049;-77
2022/04/26 06:16:38;;;;;;;0.10;0.10;;;;;;;11.94;58.82;101943.72;5064305;28;20113;-77
2022/04/26 06:19:04;;;;;;;0.00;0.00;;;;;;;11.93;58.90;101938.44;5072550;28;20028;-77
2022/04/26 06:21:30;;;;;;;0.10;0.10;;;;;;;11.92;58.99;101941.97;5071333;28;20078;-77
2022/04/26 06:23:56;;;;;;;0.20;0.20;;;;;;;11.91;59.17;101935.78;5065103;28;20036;-77
2022/04/26 06:26:23;;;;;;;0.05;0.05;;;;;;;11.89;59.52;101947.31;5064546;28;20039;-77
2022/04/26 06:28:49;;;;;;;0.30;0.30;;;;;;;11.89;59.09;101948.19;5052597;28;20108;-77
2022/04/26 06:31:15;;;;;;;0.35;0.35;;;;;;;11.86;59.38;101953.50;5051893;28;20534;-77
2022/04/26 06:33:41;;;;;;;0.05;0.05;;;;;;;11.86;58.95;101949.97;5065669;28;20039;-76
2022/04/26 06:36:07;;;;;;;0.08;0.08;;;;;;;11.79;59.36;101959.78;5066633;28;20041;-76
2022/04/26 06:38:33;;;;;;;0.10;0.10;;;;;;;11.79;59.74;101959.78;5068793;28;20036;-76
2022/04/26 06:41:00;;;;;;;1.38;1.30;;;;;;;11.76;59.90;101962.44;5071313;28;20028;-76
2022/04/26 06:43:27;;;;;;;0.20;0.20;;;;;;;11.76;59.52;101959.78;5071063;28;20111;-76
2022/04/26 06:45:53;;;;;;;0.10;0.10;;;;;;;11.80;59.48;101969.47;5061795;28;20032;-77
2022/04/26 06:48:19;;;;;;;0.03;0.03;;;;;;;11.81;59.39;101968.59;5068526;28;20032;-76
2022/04/26 06:50:46;;;;;;;4.28;0.93;;;;;;;11.77;59.34;101975.69;5064993;28;20074;-77
2022/04/26 06:53:13;;;;;;;0.10;0.10;;;;;;;11.84;59.19;101979.22;5068587;28;20042;-77
2022/04/26 06:55:39;;;;;;;0.10;0.10;;;;;;;11.83;59.65;101977.44;5071413;28;20035;-77
2022/04/26 06:58:06;;;;;;;0.00;0.00;;;;;;;11.84;59.26;101983.63;5072753;28;20105;-77
2022/04/26 07:00:33;;;;;;;0.03;0.03;;;;;;;11.85;59.21;101980.97;5075807;28;20162;-77
2022/04/26 07:02:59;;;;;;;0.10;0.10;;;;;;;11.87;59.37;101989.81;5074676;28;20044;-77
2022/04/26 07:05:25;;;;;;;0.15;0.15;;;;;;;11.92;59.15;101989.78;5073303;28;20037;-77
2022/04/26 07:07:52;;;;;;;0.20;0.20;;;;;;;12.01;58.98;101994.16;5073698;28;20032;-77
2022/04/26 07:10:19;;;;;;;0.03;0.03;;;;;;;12.04;59.13;101987.06;5075883;28;20017;-78
2022/04/26 07:12:45;;;;;;;1.88;1.73;;;;;;;12.05;59.42;101985.28;5075493;28;20047;-77
2022/04/26 07:15:11;;;;;;;0.10;0.10;;;;;;;12.11;58.53;102001.16;5075325;28;20028;-78
2022/04/26 07:17:40;;;;;;;0.03;0.03;;;;;;;12.17;59.23;102001.13;5067150;28;20037;-77
2022/04/26 07:20:08;;;;;;;0.00;0.00;;;;;;;12.26;58.84;102000.16;5084552;28;20512;-77
2022/04/26 07:22:34;;;;;;;0.32;0.32;;;;;;;12.32;58.47;102004.56;5076197;28;20032;-77
2022/04/26 07:25:01;;;;;;;0.10;0.10;;;;;;;12.40;58.57;102008.00;5076516;28;20028;-77
2022/04/26 07:27:27;;;;;;;0.10;0.10;;;;;;;12.42;58.97;101995.59;5072966;28;20028;-77
2022/04/26 07:29:53;;;;;;;0.00;0.00;;;;;;;12.41;57.99;102001.81;5073755;28;20037;-77
2022/04/26 07:32:20;;;;;;;0.10;0.10;;;;;;;12.45;57.52;102006.22;5073660;28;20021;-77
2022/04/26 07:34:46;;;;;;;0.00;0.00;;;;;;;12.55;57.85;102013.19;5070725;28;20071;-79
2022/04/26 07:37:12;;;;;;;0.20;0.20;;;;;;;12.50;58.14;102015.03;5061776;28;20148;-77
2022/04/26 07:39:38;;;;;;;0.10;0.10;;;;;;;12.46;58.25;102002.63;5073254;28;20035;-78
2022/04/26 07:42:05;;;;;;;0.10;0.10;;;;;;;12.54;57.53;102003.47;5074006;28;20025;-77
2022/04/26 07:44:34;;;;;;;0.30;0.30;;;;;;;12.54;57.35;102015.88;5072060;28;20436;-77
2022/04/26 07:47:01;;;;;;;0.15;0.15;;;;;;;12.68;57.70;102007.75;5067859;28;20393;-78
2022/04/26 07:49:27;;;;;;;1.95;0.95;;;;;;;12.68;56.92;102013.94;5074289;28;20036;-77
2022/04/26 07:51:54;;;;;;;0.10;0.10;;;;;;;12.77;57.14;102013.88;5074019;28;20036;-77
2022/04/26 07:54:20;;;;;;;0.43;0.43;;;;;;;12.77;57.26;102023.63;5070635;28;20520;-77
2022/04/26 07:56:47;;;;;;;0.00;0.00;;;;;;;12.90;56.79;102009.28;5071174;28;20082;-77
2022/04/26 07:59:14;;;;;;;2.20;2.08;;;;;;;13.07;57.31;102016.19;5074467;28;20033;-77
2022/04/26 08:01:41;;;;;;;0.10;0.10;;;;;;;13.21;56.95;102018.72;5073984;28;20021;-78
2022/04/26 08:04:07;;;;;;;0.10;0.10;;;;;;;13.30;56.44;102025.72;5073267;28;20032;-77
2022/04/26 08:06:33;;;;;;;0.00;0.00;;;;;;;13.41;56.00;102016.69;5073172;28;20115;-77
2022/04/26 08:08:59;;;;;;;0.10;0.10;;;;;;;13.44;55.35;102026.44;5074158;28;20116;-77
2022/04/26 08:11:28;;;;;;;2.20;1.25;;;;;;;13.55;56.11;102021.84;5073838;28;20028;-78
2022/04/26 08:13:55;;;;;;;0.10;0.10;;;;;;;13.60;55.86;102021.78;5073247;28;20162;-77
2022/04/26 08:16:21;;;;;;;0.10;0.10;;;;;;;13.69;55.88;102026.09;5074021;28;20082;-77
2022/04/26 08:18:47;;;;;;;0.10;0.10;;;;;;;13.81;55.78;102025.94;5066892;28;20515;-78
2022/04/26 08:21:14;;;;;;;0.10;0.10;;;;;;;13.94;55.27;102031.94;5074999;28;20491;-78
2022/04/26 08:29:14;;;;;;;0.10;0.10;;;;;;;14.09;53.80;102041.47;5065106;28;20040;-78
2022/04/26 08:31:40;;;;;;;0.00;0.00;;;;;;;14.15;53.79;102038.72;5073742;28;20059;-77
2022/04/26 08:34:07;;;;;;;0.08;0.08;;;;;;;14.19;52.97;102043.13;5074006;28;20036;-78
2022/04/26 08:36:34;;;;;;;3.15;2.17;;;;;;;14.33;53.70;102039.31;5074564;28;20025;-78
2022/04/26 08:39:01;;;;;;;0.10;0.10;;;;;;;14.23;54.52;102047.50;5073697;28;20147;-78
2022/04/26 08:41:27;;;;;;;0.85;0.85;;;;;;;14.34;51.17;102047.31;5064695;28;20119;-78
2022/04/26 08:43:53;;;;;;;0.10;0.10;;;;;;;14.46;51.94;102045.34;5074492;28;20028;-78
2022/04/26 08:46:19;;;;;;;0.10;0.10;;;;;;;14.53;51.59;102039.03;5074334;28;20039;-78
2022/04/26 08:51:33;;;;;;;0.10;0.10;;;;;;;14.53;49.87;102053.22;5064286;28;20095;-78
2022/04/26 08:53:59;;;;;;;0.10;0.10;;;;;;;14.57;51.15;102054.91;5074635;28;20029;-78
2022/04/26 08:56:25;;;;;;;0.10;0.10;;;;;;;14.60;50.46;102055.78;5074101;28;20029;-77
2022/04/26 08:58:52;;;;;;;0.30;0.30;;;;;;;14.72;50.09;102059.13;5073277;28;20036;-78
2022/04/26 09:01:23;;;;;;;0.03;0.03;;;;;;;14.86;50.67;102060.69;5072653;28;20036;-78
2022/04/26 09:09:11;;;;;;;0.20;0.20;;;;;;;15.26;50.27;102069.72;5122683;27;20159;-79
2022/04/26 09:11:38;;;;;;;0.10;0.10;;;;;;;15.34;49.59;102068.66;5109362;28;20557;-79
2022/04/26 09:14:09;;;;;;;0.10;0.10;;;;;;;15.45;49.54;102070.22;5111886;28;20077;-79
2022/04/26 09:19:20;;;;;;;0.20;0.20;;;;;;;15.63;49.66;102061.81;5112518;28;20051;-79
2022/04/26 09:21:56;;;;;;;0.00;0.00;;;;;;;15.87;48.03;102072.03;5110977;28;20159;-79
2022/04/26 09:24:22;;;;;;;0.00;0.00;;;;;;;15.98;48.77;102075.34;5110372;28;20105;-79
2022/04/26 09:26:48;;;;;;;0.10;0.10;;;;;;;16.13;47.01;102074.97;5111767;28;20042;-79
2022/04/26 09:29:19;;;;;;;0.10;0.10;;;;;;;16.32;47.12;102071.84;5111471;28;20052;-79
2022/04/26 09:31:59;;;;;;;0.10;0.10;;;;;;;16.39;47.81;102084.16;5108991;28;20407;-79
2022/04/26 09:34:38;;;;;;;0.03;0.03;;;;;;;16.57;44.88;102082.81;5101379;28;20023;-79
2022/04/26 09:37:05;;;;;;;0.10;0.10;;;;;;;16.70;45.37;102079.81;5110875;28;20024;-79
2022/04/26 09:39:32;;;;;;;0.00;0.00;;;;;;;16.79;44.63;102080.47;5111172;28;20019;-79
2022/04/26 09:41:58;;;;;;;0.10;0.10;;;;;;;16.79;44.45;102082.28;5101076;28;20074;-79
2022/04/26 09:44:33;;;;;;;0.05;0.05;;;;;;;16.96;45.57;102087.22;5109647;28;20047;-79
2022/04/26 09:46:59;;;;;;;3.10;2.15;;;;;;;16.98;45.17;102085.34;5105757;28;20553;-79
2022/04/26 09:49:28;;;;;;;0.10;0.10;;;;;;;17.04;43.67;102085.19;5107806;28;20100;-79
2022/04/26 09:51:58;;;;;;;0.35;0.35;;;;;;;17.20;43.34;102099.03;5101769;28;20031;-79
2022/04/26 09:54:25;;;;;;;2.67;1.55;;;;;;;17.20;43.57;102100.84;5109571;28;20401;-79
2022/04/26 09:56:51;;;;;;;0.10;0.10;;;;;;;17.01;41.15;102096.00;5101242;28;20124;-79
2022/04/26 09:59:42;;;;;;;0.10;0.10;;;;;;;16.86;43.71;102091.00;5105210;28;20069;-79
2022/04/26 10:02:13;;;;;;;0.10;0.10;;;;;;;16.63;43.31;102093.34;5105133;28;20035;-79
2022/04/26 10:04:49;;;;;;;0.20;0.20;;;;;;;16.55;43.66;102105.16;5110299;28;20032;-80
2022/04/26 10:07:19;;;;;;;0.10;0.10;;;;;;;16.47;44.46;102102.69;5092539;28;20501;-77
2022/04/26 10:09:46;;;;;;;0.08;0.08;;;;;;;16.31;43.98;102107.53;5107223;28;20023;-78
2022/04/26 10:12:14;;;;;;;0.00;0.00;;;;;;;16.28;44.67;102102.28;5108821;28;20032;-78
2022/04/26 10:14:42;;;;;;;0.10;0.10;;;;;;;16.31;44.57;102108.44;5109565;28;20249;-78
2022/04/26 10:17:09;;;;;;;0.10;0.10;;;;;;;16.46;44.89;102104.50;5094281;28;20024;-78
2022/04/26 10:19:40;;;;;;;0.00;0.00;;;;;;;16.66;44.24;102105.81;5099364;28;20028;-78
2022/04/26 10:22:10;;;;;;;0.05;0.05;;;;;;;16.70;43.25;102107.47;5096209;28;20050;-78
2022/04/26 10:24:38;;;;;;;0.10;0.10;;;;;;;16.73;43.42;102119.91;5096333;28;20047;-78
2022/04/26 10:27:23;;;;;;;0.10;0.10;;;;;;;16.87;43.79;102109.69;5088597;28;20024;-79
2022/04/26 10:29:49;;;;;;;0.00;0.00;;;;;;;16.93;43.74;102109.56;5087968;28;20489;-78
2022/04/26 10:32:38;;;;;;;0.00;0.00;;;;;;;17.14;42.58;102116.16;5095341;28;20027;-78
2022/04/26 10:35:28;;;;;;;0.10;0.10;;;;;;;17.16;41.21;102109.88;5095833;28;20028;-79
2022/04/26 10:38:16;;;;;;;1.15;1.10;;;;;;;17.20;41.61;102103.53;5094976;28;20016;-78
2022/04/26 10:57:23;;;;;;;0.20;0.20;;;;;;;16.81;41.30;102113.44;5103192;27;20211;-75
2022/04/26 10:59:56;;;;;;;0.05;0.05;;;;;;;17.10;41.78;102110.94;5088013;28;20036;-76
2022/04/26 11:02:25;;;;;;;0.03;0.03;;;;;;;17.36;41.79;102106.63;5087417;28;20108;-76
2022/04/26 11:05:19;;;;;;;0.10;0.10;;;;;;;17.55;40.24;102115.03;5064261;28;20024;-76
2022/04/26 11:07:47;;;;;;;0.95;0.95;;;;;;;17.56;40.39;102111.44;5066785;28;20060;-76
2022/04/26 11:10:18;;;;;;;0.10;0.10;;;;;;;17.62;37.69;102105.91;5067784;28;20154;-76
2022/04/26 11:12:44;;;;;;;0.00;0.00;;;;;;;17.61;39.13;102117.56;5066276;28;20036;-76
2022/04/26 11:15:14;;;;;;;1.08;0.22;;;;;;;17.56;40.53;102108.78;5059306;28;20025;-76
2022/04/26 11:17:41;;;;;;;0.10;0.10;;;;;;;17.51;40.37;102116.03;5059998;28;20044;-77
2022/04/26 11:20:14;;;;;;;0.00;0.00;;;;;;;17.53;39.51;102114.19;5059814;28;20028;-76
2022/04/26 11:22:57;;;;;;;0.10;0.10;;;;;;;17.59;40.75;102116.69;5052857;28;20041;-75
2022/04/26 11:28:14;;;;;;;0.03;0.03;;;;;;;17.68;41.04;102113.75;5062073;28;20064;-76
2022/04/26 11:30:43;;;;;;;0.10;0.10;;;;;;;17.92;40.16;102112.13;5062313;28;20444;-73
2022/04/26 11:33:12;;;;;;;0.05;0.05;;;;;;;18.06;39.69;102122.47;5058840;28;20056;-74
2022/04/26 11:35:40;;;;;;;0.20;0.20;;;;;;;18.19;39.57;102120.25;5057969;28;20398;-74
2022/04/26 11:38:10;;;;;;;0.10;0.10;;;;;;;18.25;38.89;102121.88;5061326;28;20419;-76
2022/04/26 11:40:40;;;;;;;0.10;0.10;;;;;;;18.26;39.13;102131.69;5062810;28;20132;-77
2022/04/26 11:43:12;;;;;;;0.10;0.10;;;;;;;18.18;39.30;102131.94;5060608;28;20036;-76
2022/04/26 11:45:41;;;;;;;0.10;0.10;;;;;;;18.10;39.11;102134.84;5061103;28;20484;-77
2022/04/26 11:48:10;;;;;;;0.10;0.10;;;;;;;17.96;38.67;102131.72;5054489;28;20025;-77
2022/04/26 11:50:37;;;;;;;0.00;0.00;;;;;;;17.76;37.67;102133.16;5057852;28;20482;-76
2022/04/26 11:55:45;;;;;;;0.50;0.50;;;;;;;17.99;38.85;102136.97;5095678;27;20475;-77
2022/04/26 11:58:18;;;;;;;0.00;0.00;;;;;;;18.29;38.75;102136.09;5085764;28;20115;-75
2022/04/26 12:06:20;;;;;;;0.10;0.10;;;;;;;18.98;37.43;102155.31;5102150;27;20222;-76
2022/04/26 12:08:50;;;;;;;0.10;0.10;;;;;;;18.97;34.72;102150.88;5065361;28;20423;-77
2022/04/26 12:14:11;;;;;;;0.10;0.10;;;;;;;18.71;37.48;102149.91;5070703;28;20039;-77
2022/04/26 12:19:17;;;;;;;0.20;0.20;;;;;;;18.55;37.85;102143.28;5136518;27;105350;-76
2022/04/26 12:24:25;;;;;;;0.85;0.75;;;;;;;18.45;38.38;102142.72;5107109;27;20223;-78
2022/04/26 12:27:12;;;;;;;0.20;0.20;;;;;;;18.50;38.12;102145.25;5086007;28;20024;-78
2022/04/26 12:32:17;;;;;;;0.10;0.10;;;;;;;18.34;39.17;102153.78;5130829;27;20186;-77
2022/04/26 12:34:50;;;;;;;1.02;0.50;;;;;;;18.32;39.23;102150.28;5079617;28;20055;-75
2022/04/26 12:37:21;;;;;;;0.20;0.20;;;;;;;18.16;39.25;102157.06;5091034;28;20094;-76
2022/04/26 12:39:54;;;;;;;0.10;0.10;;;;;;;18.08;38.94;102150.13;5085551;28;20044;-75
2022/04/26 12:45:21;;;;;;;0.20;0.20;;;;;;;17.97;39.34;102154.94;5100927;27;20223;-75
2022/04/26 12:50:40;;;;;;;0.10;0.10;;;;;;;17.84;38.71;102145.47;5097762;27;20529;-76
2022/04/26 12:53:08;;;;;;;0.10;0.10;;;;;;;17.85;38.70;102149.91;5051400;28;20029;-74
2022/04/26 12:55:40;;;;;;;0.30;0.30;;;;;;;17.84;38.42;102150.84;5059014;28;20037;-77
2022/04/26 12:58:08;;;;;;;0.17;0.17;;;;;;;17.74;37.30;102151.09;5064348;28;20039;-78
2022/04/26 13:00:44;;;;;;;0.10;0.10;;;;;;;17.79;37.96;102149.19;5048149;28;20025;-76
2022/04/26 13:03:14;;;;;;;0.05;0.05;;;;;;;17.90;39.29;102156.00;5045571;28;20037;-76
2022/04/26 13:05:44;;;;;;;0.10;0.10;;;;;;;18.01;39.19;102148.56;5043322;28;20044;-75
2022/04/26 13:08:15;;;;;;;0.10;0.10;;;;;;;18.16;38.91;102157.06;5043621;28;20113;-75
2022/04/26 13:10:42;;;;;;;0.40;0.40;;;;;;;18.28;39.26;102162.06;5041723;28;20040;-75
2022/04/26 13:13:10;;;;;;;0.10;0.10;;;;;;;18.28;38.18;102164.72;5043407;28;20087;-76
2022/04/26 13:15:37;;;;;;;0.10;0.10;;;;;;;18.26;38.36;102164.75;5041722;28;20124;-76
2022/04/26 13:18:04;;;;;;;0.08;0.08;;;;;;;18.19;39.18;102170.38;5042756;28;20060;-78
2022/04/26 13:20:32;;;;;;;0.00;0.00;;;;;;;18.07;39.87;102168.97;5051788;28;20403;-77
2022/04/26 13:22:59;;;;;;;0.10;0.10;;;;;;;17.97;39.80;102163.00;5045856;28;20033;-76
2022/04/26 13:25:25;;;;;;;0.98;0.98;;;;;;;17.86;39.69;102167.75;5049283;28;20033;-76
2022/04/26 13:27:51;;;;;;;0.20;0.20;;;;;;;17.72;39.40;102169.03;5045405;28;20029;-77
2022/04/26 13:30:18;;;;;;;0.00;0.00;;;;;;;17.63;39.43;102163.91;5047544;28;20032;-76
2022/04/26 13:32:44;;;;;;;0.10;0.10;;;;;;;17.58;40.13;102172.13;5044315;28;20041;-77
2022/04/26 13:35:11;;;;;;;0.10;0.10;;;;;;;17.52;39.70;102168.72;5043880;28;20033;-77
2022/04/26 13:37:39;;;;;;;0.10;0.10;;;;;;;17.51;39.27;102164.28;5040662;28;20041;-76
2022/04/26 13:40:06;;;;;;;0.20;0.20;;;;;;;17.46;39.69;102170.66;5043419;28;20025;-76
2022/04/26 13:42:35;;;;;;;0.20;0.20;;;;;;;17.39;38.83;102161.00;5044107;28;20037;-76
2022/04/26 13:45:02;;;;;;;0.00;0.00;;;;;;;17.45;39.29;102160.84;5040835;28;20032;-75
2022/04/26 13:47:29;;;;;;;0.10;0.10;;;;;;;17.39;39.08;102169.06;5043883;28;20030;-76
2022/04/26 13:49:55;;;;;;;0.30;0.30;;;;;;;17.41;39.59;102158.31;5038774;28;20025;-76
2022/04/26 13:52:22;;;;;;;0.00;0.00;;;;;;;17.63;39.51;102166.59;5035691;28;20029;-75
2022/04/26 13:54:49;;;;;;;0.10;0.10;;;;;;;17.91;39.05;102163.13;5035346;28;20026;-76
2022/04/26 13:57:16;;;;;;;0.10;0.10;;;;;;;18.23;39.25;102156.81;5033053;28;20048;-76
2022/04/26 13:59:43;;;;;;;0.10;0.10;;;;;;;18.55;38.54;102160.25;5047313;28;20364;-77
2022/04/26 14:02:11;;;;;;;0.10;0.10;;;;;;;18.53;37.14;102156.78;5036756;28;20491;-77
2022/04/26 14:04:37;;;;;;;0.10;0.10;;;;;;;18.52;37.50;102154.13;5034987;28;20044;-76
2022/04/26 14:07:04;;;;;;;0.10;0.10;;;;;;;18.64;36.93;102153.75;5033511;28;20033;-77
2022/04/26 14:09:30;;;;;;;0.10;0.10;;;;;;;18.79;37.63;102159.50;5037007;28;20030;-78
2022/04/26 14:11:57;;;;;;;0.15;0.15;;;;;;;18.81;37.65;102152.28;5036884;28;20037;-76
2022/04/26 14:22:43;;;;;;;0.10;0.10;;;;;;;19.07;36.43;102146.91;5024886;28;20103;-75
2022/04/26 14:25:11;;;;;;;0.17;0.17;;;;;;;19.02;36.59;102154.25;5028825;28;20033;-75
2022/04/26 14:27:39;;;;;;;0.00;0.00;;;;;;;18.84;35.94;102154.84;5032305;28;20044;-75
2022/04/26 14:30:07;;;;;;;0.10;0.10;;;;;;;18.61;35.99;102153.81;5029023;28;20395;-75
2022/04/26 14:32:35;;;;;;;0.03;0.03;;;;;;;18.41;37.09;102154.47;5028752;28;20037;-77
2022/04/26 14:35:02;;;;;;;0.10;0.10;;;;;;;18.23;36.91;102156.81;5033164;28;20151;-76
2022/04/26 14:37:28;;;;;;;1.33;1.33;;;;;;;18.19;37.30;102165.00;5034358;28;20032;-76
2022/04/26 14:39:54;;;;;;;0.10;0.10;;;;;;;18.14;37.23;102154.41;5029011;28;20487;-76
2022/04/26 14:42:21;;;;;;;0.00;0.00;;;;;;;18.14;37.10;102159.78;5024274;28;20418;-76
2022/04/26 14:44:47;;;;;;;0.00;0.00;;;;;;;18.10;37.04;102147.38;5021003;28;20042;-77
2022/04/26 14:47:15;;;;;;;0.57;0.45;;;;;;;18.22;37.70;102154.19;5023945;28;20034;-77
2022/04/26 14:49:44;;;;;;;0.10;0.10;;;;;;;18.40;36.47;102153.59;5028779;28;20030;-76
2022/04/26 14:52:14;;;;;;;0.10;0.10;;;;;;;18.62;36.13;102160.06;5030405;28;20046;-76
2022/04/26 14:54:40;;;;;;;0.00;0.00;;;;;;;18.96;36.51;102153.59;5032553;28;20032;-76
2022/04/26 14:57:06;;;;;;;0.10;0.10;;;;;;;19.22;35.52;102150.00;5031027;28;20494;-75
2022/04/26 14:59:36;;;;;;;0.10;0.10;;;;;;;19.48;35.47;102161.63;5031731;28;20034;-76
2022/04/26 15:02:02;;;;;;;0.10;0.10;;;;;;;19.55;33.92;102171.19;5031997;28;20024;-75
2022/04/26 15:04:28;;;;;;;0.10;0.10;;;;;;;19.56;34.99;102165.78;5033271;28;20038;-77
2022/04/26 15:06:55;;;;;;;0.10;0.10;;;;;;;19.54;34.81;102164.09;5030652;28;20068;-76
2022/04/26 15:09:52;;;;;;;0.10;0.10;;;;;;;19.53;34.83;102170.41;5030978;28;20025;-76
2022/04/26 15:17:40;;;;;;;0.10;0.10;;;;;;;19.38;34.53;102174.53;5033117;28;20052;-77
2022/04/26 15:20:07;;;;;;;0.13;0.13;;;;;;;19.39;34.67;102182.53;5032193;28;20026;-77
2022/04/26 15:22:36;;;;;;;0.10;0.10;;;;;;;19.37;34.69;102170.06;5029564;28;20033;-77
2022/04/26 15:25:06;;;;;;;0.10;0.10;;;;;;;19.29;34.12;102172.16;5032460;28;20029;-77
2022/04/26 15:27:35;;;;;;;0.10;0.10;;;;;;;19.17;33.83;102173.47;5032226;28;20057;-77
2022/04/26 15:30:03;;;;;;;0.10;0.10;;;;;;;19.08;34.17;102169.31;5032485;28;20084;-76
2022/04/26 15:32:29;;;;;;;0.00;0.00;;;;;;;19.15;34.25;102169.94;5031566;28;20037;-74
2022/04/26 15:34:55;;;;;;;0.28;0.28;;;;;;;19.27;34.54;102174.03;5032456;28;20030;-77
2022/04/26 15:37:24;;;;;;;0.00;0.00;;;;;;;19.33;33.97;102174.69;5031252;28;20060;-76
2022/04/26 15:39:51;;;;;;;7.28;0.98;;;;;;;19.32;33.75;102183.66;5030794;28;20021;-76
2022/04/26 15:42:18;;;;;;;0.10;0.10;;;;;;;19.20;33.92;102182.31;5030955;28;20125;-77
2022/04/26 15:44:44;;;;;;;0.52;0.52;;;;;;;19.26;34.56;102181.19;5036945;28;20033;-77
2022/04/26 15:47:13;;;;;;;0.10;0.10;;;;;;;19.44;34.75;102177.00;5034356;28;20491;-78
2022/04/26 15:49:39;;;;;;;0.10;0.10;;;;;;;19.62;34.32;102183.50;5031526;28;20079;-76
2022/04/26 15:52:07;;;;;;;0.00;0.00;;;;;;;19.74;34.24;102179.50;5030650;28;20037;-76
2022/04/26 15:54:35;;;;;;;0.10;0.10;;;;;;;19.79;34.13;102187.34;5031432;28;20495;-75
2022/04/26 15:57:03;;;;;;;0.05;0.05;;;;;;;19.85;34.17;102181.78;5033531;28;20080;-76
2022/04/26 15:59:29;;;;;;;0.22;0.22;;;;;;;19.79;33.47;102187.34;5032032;28;20037;-78
2022/04/26 16:01:55;;;;;;;0.10;0.10;;;;;;;19.80;33.35;102189.13;5031417;28;20080;-77
2022/04/26 16:04:22;;;;;;;0.10;0.10;;;;;;;19.89;33.76;102188.81;5031707;28;20396;-77
2022/04/26 16:06:48;;;;;;;0.10;0.10;;;;;;;19.98;33.73;102195.66;5032689;28;20381;-75
2022/04/26 16:20:35;;;;;;;0.00;0.00;;;;;;;19.95;32.86;102193.97;5011617;28;20121;-77
2022/04/26 16:23:05;;;;;;;0.20;0.20;;;;;;;20.11;33.36;102190.69;5027612;28;20029;-77
2022/04/26 16:25:31;;;;;;;0.00;0.00;;;;;;;20.19;32.06;102196.66;5030811;28;20446;-77
2022/04/26 16:28:00;;;;;;;0.00;0.00;;;;;;;20.07;32.95;102197.13;5033570;28;20029;-77
2022/04/26 16:30:29;;;;;;;0.32;0.20;;;;;;;19.99;33.06;102200.97;5033973;28;20026;-78
2022/04/26 16:32:56;;;;;;;0.10;0.10;;;;;;;19.86;33.42;102197.88;5033846;28;20030;-75